sensor_id;sensor_type;location;lat;lon;timestamp;P1;durP1;ratioP1;P2;durP2;ratioP2
51384;SDS011;37478;55.682;37.462;2023-01-31T00:00:28;7.28;;;4.07;;
51384;SDS011;37478;55.682;37.462;2023-01-31T00:02:53;9.93;;;4.45;;
51384;SDS011;37478;55.682;37.462;2023-01-31T00:05:19;9.65;;;4.93;;
51384;SDS011;37478;55.682;37.462;2023-01-31T00:07:45;8.02;;;4.18;;
51384;SDS011;37478;55.682;37.462;2023-01-31T00:10:11;8.85;;;4.43;;
51384;SDS011;37478;55.682;37.462;2023-01-31T00:12:36;8.30;;;4.88;;
51384;SDS011;37478;55.682;37.462;2023-01-31T00:15:02;7.05;;;4.45;;
51384;SDS011;37478;55.682;37.462;2023-01-31T00:17:27;9.20;;;4.72;;
51384;SDS011;37478;55.682;37.462;2023-01-31T00:19:53;7.30;;;5.00;;
51384;SDS011;37478;55.682;37.462;2023-01-31T00:22:18;10.98;;;5.43;;
51384;SDS011;37478;55.682;37.462;2023-01-31T00:24:43;6.70;;;3.90;;
51384;SDS011;37478;55.682;37.462;2023-01-31T00:27:09;8.63;;;4.53;;
51384;SDS011;37478;55.682;37.462;2023-01-31T00:29:34;10.05;;;4.90;;
51384;SDS011;37478;55.682;37.462;2023-01-31T00:31:59;12.77;;;5.90;;
51384;SDS011;37478;55.682;37.462;2023-01-31T00:34:24;7.90;;;4.68;;
51384;SDS011;37478;55.682;37.462;2023-01-31T00:36:50;6.88;;;3.78;;
51384;SDS011;37478;55.682;37.462;2023-01-31T00:39:15;8.23;;;4.82;;
51384;SDS011;37478;55.682;37.462;2023-01-31T00:41:40;8.27;;;4.40;;
51384;SDS011;37478;55.682;37.462;2023-01-31T00:44:06;9.75;;;4.47;;
51384;SDS011;37478;55.682;37.462;2023-01-31T00:46:31;12.40;;;5.30;;
51384;SDS011;37478;55.682;37.462;2023-01-31T00:48:57;10.75;;;4.28;;
51384;SDS011;37478;55.682;37.462;2023-01-31T00:51:23;10.15;;;4.45;;
51384;SDS011;37478;55.682;37.462;2023-01-31T00:53:49;6.50;;;4.22;;
51384;SDS011;37478;55.682;37.462;2023-01-31T00:56:18;5.93;;;4.13;;
51384;SDS011;37478;55.682;37.462;2023-01-31T00:58:43;9.07;;;4.55;;
51384;SDS011;37478;55.682;37.462;2023-01-31T01:03:37;8.77;;;5.00;;
51384;SDS011;37478;55.682;37.462;2023-01-31T01:06:03;9.57;;;4.90;;
51384;SDS011;37478;55.682;37.462;2023-01-31T01:08:28;7.80;;;4.25;;
51384;SDS011;37478;55.682;37.462;2023-01-31T01:10:54;8.07;;;4.40;;
51384;SDS011;37478;55.682;37.462;2023-01-31T01:13:19;6.95;;;4.50;;
51384;SDS011;37478;55.682;37.462;2023-01-31T01:15:45;8.93;;;5.20;;
51384;SDS011;37478;55.682;37.462;2023-01-31T01:18:10;8.27;;;4.55;;
51384;SDS011;37478;55.682;37.462;2023-01-31T01:20:35;10.40;;;4.68;;
51384;SDS011;37478;55.682;37.462;2023-01-31T01:23:00;9.00;;;4.65;;
51384;SDS011;37478;55.682;37.462;2023-01-31T01:25:26;8.75;;;4.60;;
51384;SDS011;37478;55.682;37.462;2023-01-31T01:27:51;8.10;;;4.25;;
51384;SDS011;37478;55.682;37.462;2023-01-31T01:30:17;8.13;;;4.93;;
51384;SDS011;37478;55.682;37.462;2023-01-31T01:32:42;10.05;;;4.53;;
51384;SDS011;37478;55.682;37.462;2023-01-31T01:35:07;12.07;;;5.03;;
51384;SDS011;37478;55.682;37.462;2023-01-31T01:37:34;9.98;;;4.93;;
51384;SDS011;37478;55.682;37.462;2023-01-31T01:39:59;8.43;;;4.75;;
51384;SDS011;37478;55.682;37.462;2023-01-31T01:42:25;9.98;;;5.30;;
51384;SDS011;37478;55.682;37.462;2023-01-31T01:44:51;9.75;;;5.75;;
51384;SDS011;37478;55.682;37.462;2023-01-31T01:50:06;8.07;;;4.75;;
51384;SDS011;37478;55.682;37.462;2023-01-31T01:52:34;10.18;;;4.78;;
51384;SDS011;37478;55.682;37.462;2023-01-31T01:55:11;11.93;;;4.93;;
51384;SDS011;37478;55.682;37.462;2023-01-31T01:57:38;10.30;;;5.13;;
51384;SDS011;37478;55.682;37.462;2023-01-31T02:00:14;9.80;;;5.15;;
51384;SDS011;37478;55.682;37.462;2023-01-31T02:02:40;10.35;;;5.43;;
51384;SDS011;37478;55.682;37.462;2023-01-31T02:05:07;7.90;;;5.18;;
51384;SDS011;37478;55.682;37.462;2023-01-31T02:07:32;9.85;;;5.22;;
51384;SDS011;37478;55.682;37.462;2023-01-31T02:10:05;9.80;;;5.45;;
51384;SDS011;37478;55.682;37.462;2023-01-31T02:12:31;10.20;;;5.35;;
51384;SDS011;37478;55.682;37.462;2023-01-31T02:14:58;8.93;;;5.43;;
51384;SDS011;37478;55.682;37.462;2023-01-31T02:17:23;10.30;;;5.70;;
51384;SDS011;37478;55.682;37.462;2023-01-31T02:27:25;9.75;;;4.90;;
51384;SDS011;37478;55.682;37.462;2023-01-31T02:35:05;11.20;;;6.45;;
51384;SDS011;37478;55.682;37.462;2023-01-31T02:45:46;10.30;;;5.07;;
51384;SDS011;37478;55.682;37.462;2023-01-31T02:48:16;12.10;;;6.77;;
51384;SDS011;37478;55.682;37.462;2023-01-31T02:50:44;10.65;;;5.80;;
51384;SDS011;37478;55.682;37.462;2023-01-31T02:55:40;10.13;;;5.18;;
51384;SDS011;37478;55.682;37.462;2023-01-31T02:58:27;11.95;;;5.70;;
51384;SDS011;37478;55.682;37.462;2023-01-31T03:00:55;9.82;;;5.53;;
51384;SDS011;37478;55.682;37.462;2023-01-31T03:03:21;13.48;;;5.97;;
51384;SDS011;37478;55.682;37.462;2023-01-31T03:08:33;10.70;;;5.63;;
51384;SDS011;37478;55.682;37.462;2023-01-31T03:10:59;8.35;;;4.95;;
51384;SDS011;37478;55.682;37.462;2023-01-31T03:16:02;12.18;;;5.10;;
51384;SDS011;37478;55.682;37.462;2023-01-31T03:21:35;7.90;;;4.70;;
51384;SDS011;37478;55.682;37.462;2023-01-31T03:24:01;10.50;;;5.25;;
51384;SDS011;37478;55.682;37.462;2023-01-31T03:26:29;15.95;;;6.57;;
51384;SDS011;37478;55.682;37.462;2023-01-31T03:28:54;11.77;;;5.53;;
51384;SDS011;37478;55.682;37.462;2023-01-31T03:31:27;12.55;;;5.75;;
51384;SDS011;37478;55.682;37.462;2023-01-31T03:33:54;10.88;;;5.90;;
51384;SDS011;37478;55.682;37.462;2023-01-31T03:41:23;8.93;;;5.55;;
51384;SDS011;37478;55.682;37.462;2023-01-31T03:44:05;13.32;;;6.05;;
51384;SDS011;37478;55.682;37.462;2023-01-31T03:46:52;9.43;;;5.72;;
51384;SDS011;37478;55.682;37.462;2023-01-31T03:49:19;11.93;;;6.68;;
51384;SDS011;37478;55.682;37.462;2023-01-31T03:51:47;13.35;;;6.78;;
51384;SDS011;37478;55.682;37.462;2023-01-31T03:54:23;11.73;;;6.18;;
51384;SDS011;37478;55.682;37.462;2023-01-31T03:56:53;12.50;;;5.95;;
51384;SDS011;37478;55.682;37.462;2023-01-31T03:59:21;10.75;;;5.68;;
51384;SDS011;37478;55.682;37.462;2023-01-31T04:01:48;9.55;;;6.00;;
51384;SDS011;37478;55.682;37.462;2023-01-31T04:04:27;12.77;;;5.28;;
51384;SDS011;37478;55.682;37.462;2023-01-31T04:06:56;12.77;;;6.25;;
51384;SDS011;37478;55.682;37.462;2023-01-31T04:09:22;14.23;;;5.95;;
51384;SDS011;37478;55.682;37.462;2023-01-31T04:11:48;12.35;;;6.00;;
51384;SDS011;37478;55.682;37.462;2023-01-31T04:14:13;14.07;;;6.78;;
51384;SDS011;37478;55.682;37.462;2023-01-31T04:16:39;10.38;;;5.75;;
51384;SDS011;37478;55.682;37.462;2023-01-31T04:19:04;13.73;;;7.00;;
51384;SDS011;37478;55.682;37.462;2023-01-31T04:21:30;10.10;;;5.28;;
51384;SDS011;37478;55.682;37.462;2023-01-31T04:23:55;12.63;;;6.43;;
51384;SDS011;37478;55.682;37.462;2023-01-31T04:26:21;11.77;;;6.07;;
51384;SDS011;37478;55.682;37.462;2023-01-31T04:28:46;10.02;;;5.80;;
51384;SDS011;37478;55.682;37.462;2023-01-31T04:31:11;12.85;;;5.95;;
51384;SDS011;37478;55.682;37.462;2023-01-31T04:33:37;12.35;;;5.97;;
51384;SDS011;37478;55.682;37.462;2023-01-31T04:36:02;10.52;;;5.90;;
51384;SDS011;37478;55.682;37.462;2023-01-31T04:38:27;12.63;;;7.18;;
51384;SDS011;37478;55.682;37.462;2023-01-31T04:40:53;15.88;;;6.93;;
51384;SDS011;37478;55.682;37.462;2023-01-31T04:43:18;12.38;;;6.55;;
51384;SDS011;37478;55.682;37.462;2023-01-31T04:45:43;13.55;;;6.68;;
51384;SDS011;37478;55.682;37.462;2023-01-31T04:48:09;10.27;;;5.75;;
51384;SDS011;37478;55.682;37.462;2023-01-31T04:50:34;13.68;;;7.13;;
51384;SDS011;37478;55.682;37.462;2023-01-31T04:52:59;14.40;;;7.80;;
51384;SDS011;37478;55.682;37.462;2023-01-31T04:55:25;14.63;;;7.40;;
51384;SDS011;37478;55.682;37.462;2023-01-31T04:57:51;16.95;;;8.10;;
51384;SDS011;37478;55.682;37.462;2023-01-31T05:00:17;11.32;;;6.40;;
51384;SDS011;37478;55.682;37.462;2023-01-31T05:02:42;13.13;;;6.53;;
51384;SDS011;37478;55.682;37.462;2023-01-31T05:05:08;13.90;;;6.78;;
51384;SDS011;37478;55.682;37.462;2023-01-31T05:07:33;12.57;;;6.78;;
51384;SDS011;37478;55.682;37.462;2023-01-31T05:09:58;14.43;;;6.50;;
51384;SDS011;37478;55.682;37.462;2023-01-31T05:12:24;12.93;;;6.25;;
51384;SDS011;37478;55.682;37.462;2023-01-31T05:14:49;13.98;;;6.88;;
51384;SDS011;37478;55.682;37.462;2023-01-31T05:17:15;11.73;;;6.90;;
51384;SDS011;37478;55.682;37.462;2023-01-31T05:19:40;12.23;;;6.95;;
51384;SDS011;37478;55.682;37.462;2023-01-31T05:22:07;13.23;;;6.78;;
51384;SDS011;37478;55.682;37.462;2023-01-31T05:24:33;12.20;;;6.82;;
51384;SDS011;37478;55.682;37.462;2023-01-31T05:26:59;11.75;;;6.30;;
51384;SDS011;37478;55.682;37.462;2023-01-31T05:29:26;14.07;;;7.70;;
51384;SDS011;37478;55.682;37.462;2023-01-31T05:31:51;16.60;;;7.35;;
51384;SDS011;37478;55.682;37.462;2023-01-31T05:34:17;14.90;;;7.95;;
51384;SDS011;37478;55.682;37.462;2023-01-31T05:36:42;16.58;;;7.13;;
51384;SDS011;37478;55.682;37.462;2023-01-31T05:39:07;15.35;;;6.78;;
51384;SDS011;37478;55.682;37.462;2023-01-31T05:41:33;16.95;;;7.03;;
51384;SDS011;37478;55.682;37.462;2023-01-31T05:43:58;16.58;;;8.57;;
51384;SDS011;37478;55.682;37.462;2023-01-31T05:46:23;15.70;;;8.07;;
51384;SDS011;37478;55.682;37.462;2023-01-31T05:48:49;14.38;;;6.45;;
51384;SDS011;37478;55.682;37.462;2023-01-31T05:51:14;11.95;;;6.85;;
51384;SDS011;37478;55.682;37.462;2023-01-31T05:53:39;14.38;;;7.18;;
51384;SDS011;37478;55.682;37.462;2023-01-31T05:56:05;13.32;;;7.03;;
51384;SDS011;37478;55.682;37.462;2023-01-31T05:58:30;31.33;;;8.25;;
51384;SDS011;37478;55.682;37.462;2023-01-31T06:00:55;15.88;;;8.77;;
51384;SDS011;37478;55.682;37.462;2023-01-31T06:03:21;16.48;;;7.05;;
51384;SDS011;37478;55.682;37.462;2023-01-31T06:05:46;14.18;;;7.53;;
51384;SDS011;37478;55.682;37.462;2023-01-31T06:08:11;16.70;;;8.05;;
51384;SDS011;37478;55.682;37.462;2023-01-31T06:10:38;11.85;;;7.25;;
51384;SDS011;37478;55.682;37.462;2023-01-31T06:13:03;13.52;;;7.38;;
51384;SDS011;37478;55.682;37.462;2023-01-31T06:15:28;17.92;;;7.70;;
51384;SDS011;37478;55.682;37.462;2023-01-31T06:17:54;13.57;;;8.32;;
51384;SDS011;37478;55.682;37.462;2023-01-31T06:20:19;11.07;;;7.20;;
51384;SDS011;37478;55.682;37.462;2023-01-31T06:22:45;16.73;;;7.55;;
51384;SDS011;37478;55.682;37.462;2023-01-31T06:25:10;13.68;;;8.02;;
51384;SDS011;37478;55.682;37.462;2023-01-31T06:27:35;12.95;;;7.60;;
51384;SDS011;37478;55.682;37.462;2023-01-31T06:30:01;13.25;;;7.47;;
51384;SDS011;37478;55.682;37.462;2023-01-31T06:32:26;16.90;;;8.02;;
51384;SDS011;37478;55.682;37.462;2023-01-31T06:34:51;11.15;;;6.47;;
51384;SDS011;37478;55.682;37.462;2023-01-31T06:37:17;19.00;;;8.50;;
51384;SDS011;37478;55.682;37.462;2023-01-31T06:39:42;15.70;;;7.75;;
51384;SDS011;37478;55.682;37.462;2023-01-31T06:42:07;15.02;;;7.82;;
51384;SDS011;37478;55.682;37.462;2023-01-31T06:44:33;15.05;;;6.82;;
51384;SDS011;37478;55.682;37.462;2023-01-31T06:46:59;15.52;;;8.45;;
51384;SDS011;37478;55.682;37.462;2023-01-31T06:49:24;15.85;;;8.38;;
51384;SDS011;37478;55.682;37.462;2023-01-31T06:51:50;14.38;;;8.60;;
51384;SDS011;37478;55.682;37.462;2023-01-31T06:54:15;14.93;;;8.05;;
51384;SDS011;37478;55.682;37.462;2023-01-31T06:56:40;15.57;;;8.23;;
51384;SDS011;37478;55.682;37.462;2023-01-31T06:59:05;14.15;;;7.97;;
51384;SDS011;37478;55.682;37.462;2023-01-31T07:01:31;15.02;;;7.40;;
51384;SDS011;37478;55.682;37.462;2023-01-31T07:03:56;16.65;;;7.97;;
51384;SDS011;37478;55.682;37.462;2023-01-31T07:06:21;15.10;;;8.05;;
51384;SDS011;37478;55.682;37.462;2023-01-31T07:08:47;17.52;;;9.07;;
51384;SDS011;37478;55.682;37.462;2023-01-31T07:11:12;12.38;;;7.50;;
51384;SDS011;37478;55.682;37.462;2023-01-31T07:13:37;12.00;;;7.50;;
51384;SDS011;37478;55.682;37.462;2023-01-31T07:16:03;18.90;;;8.55;;
51384;SDS011;37478;55.682;37.462;2023-01-31T07:18:28;15.52;;;7.75;;
51384;SDS011;37478;55.682;37.462;2023-01-31T07:20:53;12.23;;;6.90;;
51384;SDS011;37478;55.682;37.462;2023-01-31T07:23:19;11.60;;;7.22;;
51384;SDS011;37478;55.682;37.462;2023-01-31T07:25:44;14.25;;;7.72;;
51384;SDS011;37478;55.682;37.462;2023-01-31T07:28:10;15.23;;;8.23;;
51384;SDS011;37478;55.682;37.462;2023-01-31T07:30:35;15.40;;;8.50;;
51384;SDS011;37478;55.682;37.462;2023-01-31T07:33:01;12.80;;;7.20;;
51384;SDS011;37478;55.682;37.462;2023-01-31T07:35:26;16.00;;;9.23;;
51384;SDS011;37478;55.682;37.462;2023-01-31T07:37:52;13.88;;;7.43;;
51384;SDS011;37478;55.682;37.462;2023-01-31T07:40:17;15.20;;;7.60;;
51384;SDS011;37478;55.682;37.462;2023-01-31T07:42:43;15.90;;;8.88;;
51384;SDS011;37478;55.682;37.462;2023-01-31T07:45:12;17.27;;;8.27;;
51384;SDS011;37478;55.682;37.462;2023-01-31T07:47:38;14.27;;;7.30;;
51384;SDS011;37478;55.682;37.462;2023-01-31T07:50:03;12.68;;;7.43;;
51384;SDS011;37478;55.682;37.462;2023-01-31T07:52:29;17.30;;;7.70;;
51384;SDS011;37478;55.682;37.462;2023-01-31T07:54:55;15.55;;;7.10;;
51384;SDS011;37478;55.682;37.462;2023-01-31T07:57:20;14.98;;;7.22;;
51384;SDS011;37478;55.682;37.462;2023-01-31T07:59:45;14.55;;;7.25;;
51384;SDS011;37478;55.682;37.462;2023-01-31T08:02:11;13.63;;;7.20;;
51384;SDS011;37478;55.682;37.462;2023-01-31T08:04:55;17.73;;;8.13;;
51384;SDS011;37478;55.682;37.462;2023-01-31T08:07:20;15.38;;;7.97;;
51384;SDS011;37478;55.682;37.462;2023-01-31T08:09:45;14.82;;;7.78;;
51384;SDS011;37478;55.682;37.462;2023-01-31T08:12:13;14.15;;;7.72;;
51384;SDS011;37478;55.682;37.462;2023-01-31T08:14:39;16.95;;;7.75;;
51384;SDS011;37478;55.682;37.462;2023-01-31T08:17:04;15.25;;;7.93;;
51384;SDS011;37478;55.682;37.462;2023-01-31T08:19:33;15.05;;;7.68;;
51384;SDS011;37478;55.682;37.462;2023-01-31T08:21:59;13.90;;;7.80;;
51384;SDS011;37478;55.682;37.462;2023-01-31T08:24:25;14.43;;;7.55;;
51384;SDS011;37478;55.682;37.462;2023-01-31T08:26:50;17.42;;;8.43;;
51384;SDS011;37478;55.682;37.462;2023-01-31T08:29:15;14.68;;;7.82;;
51384;SDS011;37478;55.682;37.462;2023-01-31T08:31:41;16.45;;;7.95;;
51384;SDS011;37478;55.682;37.462;2023-01-31T08:34:06;13.45;;;7.60;;
51384;SDS011;37478;55.682;37.462;2023-01-31T08:36:32;13.65;;;7.13;;
51384;SDS011;37478;55.682;37.462;2023-01-31T08:38:57;17.08;;;7.97;;
51384;SDS011;37478;55.682;37.462;2023-01-31T08:41:23;14.13;;;7.07;;
51384;SDS011;37478;55.682;37.462;2023-01-31T08:43:49;13.93;;;7.45;;
51384;SDS011;37478;55.682;37.462;2023-01-31T08:46:14;11.35;;;6.53;;
51384;SDS011;37478;55.682;37.462;2023-01-31T08:48:40;13.38;;;7.22;;
51384;SDS011;37478;55.682;37.462;2023-01-31T08:51:07;14.32;;;7.88;;
51384;SDS011;37478;55.682;37.462;2023-01-31T08:53:33;14.35;;;8.40;;
51384;SDS011;37478;55.682;37.462;2023-01-31T08:56:01;14.75;;;7.35;;
51384;SDS011;37478;55.682;37.462;2023-01-31T08:58:27;14.98;;;7.60;;
51384;SDS011;37478;55.682;37.462;2023-01-31T09:00:53;12.27;;;6.88;;
51384;SDS011;37478;55.682;37.462;2023-01-31T09:03:18;15.50;;;7.82;;
51384;SDS011;37478;55.682;37.462;2023-01-31T09:05:43;15.38;;;8.10;;
51384;SDS011;37478;55.682;37.462;2023-01-31T09:08:09;15.55;;;7.65;;
51384;SDS011;37478;55.682;37.462;2023-01-31T09:10:35;16.60;;;7.78;;
51384;SDS011;37478;55.682;37.462;2023-01-31T09:13:00;14.50;;;7.70;;
51384;SDS011;37478;55.682;37.462;2023-01-31T09:15:25;14.90;;;7.68;;
51384;SDS011;37478;55.682;37.462;2023-01-31T09:17:51;17.00;;;8.45;;
51384;SDS011;37478;55.682;37.462;2023-01-31T09:20:16;15.43;;;7.93;;
51384;SDS011;37478;55.682;37.462;2023-01-31T09:22:42;15.18;;;8.02;;
51384;SDS011;37478;55.682;37.462;2023-01-31T09:25:07;14.63;;;8.25;;
51384;SDS011;37478;55.682;37.462;2023-01-31T09:27:33;15.07;;;6.97;;
51384;SDS011;37478;55.682;37.462;2023-01-31T09:29:59;17.15;;;8.00;;
51384;SDS011;37478;55.682;37.462;2023-01-31T09:32:24;16.33;;;7.07;;
51384;SDS011;37478;55.682;37.462;2023-01-31T09:34:50;14.32;;;8.45;;
51384;SDS011;37478;55.682;37.462;2023-01-31T09:37:15;12.07;;;7.63;;
51384;SDS011;37478;55.682;37.462;2023-01-31T09:39:41;18.67;;;7.57;;
51384;SDS011;37478;55.682;37.462;2023-01-31T09:45:14;15.32;;;8.52;;
51384;SDS011;37478;55.682;37.462;2023-01-31T09:47:47;15.90;;;8.48;;
51384;SDS011;37478;55.682;37.462;2023-01-31T09:50:21;19.20;;;8.10;;
51384;SDS011;37478;55.682;37.462;2023-01-31T09:52:47;14.25;;;6.85;;
51384;SDS011;37478;55.682;37.462;2023-01-31T09:55:17;16.75;;;7.97;;
51384;SDS011;37478;55.682;37.462;2023-01-31T09:57:54;13.38;;;7.75;;
51384;SDS011;37478;55.682;37.462;2023-01-31T10:00:23;14.75;;;7.55;;
51384;SDS011;37478;55.682;37.462;2023-01-31T10:05:45;15.52;;;7.75;;
51384;SDS011;37478;55.682;37.462;2023-01-31T10:10:38;13.57;;;6.72;;
51384;SDS011;37478;55.682;37.462;2023-01-31T10:13:16;15.60;;;7.07;;
51384;SDS011;37478;55.682;37.462;2023-01-31T10:15:47;15.57;;;8.05;;
51384;SDS011;37478;55.682;37.462;2023-01-31T10:18:17;14.60;;;8.13;;
51384;SDS011;37478;55.682;37.462;2023-01-31T10:20:50;14.02;;;7.70;;
51384;SDS011;37478;55.682;37.462;2023-01-31T10:23:21;21.08;;;8.07;;
51384;SDS011;37478;55.682;37.462;2023-01-31T10:25:49;14.52;;;8.00;;
51384;SDS011;37478;55.682;37.462;2023-01-31T10:28:17;15.50;;;7.63;;
51384;SDS011;37478;55.682;37.462;2023-01-31T10:30:49;15.18;;;7.20;;
51384;SDS011;37478;55.682;37.462;2023-01-31T10:36:12;12.32;;;6.05;;
51384;SDS011;37478;55.682;37.462;2023-01-31T10:38:52;14.95;;;7.68;;
51384;SDS011;37478;55.682;37.462;2023-01-31T10:41:20;14.70;;;7.38;;
51384;SDS011;37478;55.682;37.462;2023-01-31T10:43:51;14.45;;;7.50;;
51384;SDS011;37478;55.682;37.462;2023-01-31T10:46:17;12.52;;;6.80;;
51384;SDS011;37478;55.682;37.462;2023-01-31T10:48:43;21.75;;;7.72;;
51384;SDS011;37478;55.682;37.462;2023-01-31T10:58:30;15.02;;;8.20;;
51384;SDS011;37478;55.682;37.462;2023-01-31T11:00:56;14.98;;;6.97;;
51384;SDS011;37478;55.682;37.462;2023-01-31T11:03:22;15.65;;;7.72;;
51384;SDS011;37478;55.682;37.462;2023-01-31T11:05:49;16.17;;;8.20;;
51384;SDS011;37478;55.682;37.462;2023-01-31T11:08:24;16.17;;;6.90;;
51384;SDS011;37478;55.682;37.462;2023-01-31T11:10:51;17.10;;;7.72;;
51384;SDS011;37478;55.682;37.462;2023-01-31T11:13:17;16.42;;;7.85;;
51384;SDS011;37478;55.682;37.462;2023-01-31T11:15:42;13.07;;;6.50;;
51384;SDS011;37478;55.682;37.462;2023-01-31T11:18:10;12.90;;;7.20;;
51384;SDS011;37478;55.682;37.462;2023-01-31T11:20:43;13.75;;;7.28;;
51384;SDS011;37478;55.682;37.462;2023-01-31T11:23:09;16.10;;;9.18;;
51384;SDS011;37478;55.682;37.462;2023-01-31T11:25:37;13.30;;;7.45;;
51384;SDS011;37478;55.682;37.462;2023-01-31T11:28:03;21.83;;;10.88;;
51384;SDS011;37478;55.682;37.462;2023-01-31T11:30:39;13.00;;;7.45;;
51384;SDS011;37478;55.682;37.462;2023-01-31T11:33:04;16.30;;;7.97;;
51384;SDS011;37478;55.682;37.462;2023-01-31T11:35:31;14.75;;;8.55;;
51384;SDS011;37478;55.682;37.462;2023-01-31T11:37:58;11.95;;;8.02;;
51384;SDS011;37478;55.682;37.462;2023-01-31T11:40:28;14.27;;;7.50;;
51384;SDS011;37478;55.682;37.462;2023-01-31T11:42:58;12.68;;;7.40;;
51384;SDS011;37478;55.682;37.462;2023-01-31T11:45:28;17.92;;;7.32;;
51384;SDS011;37478;55.682;37.462;2023-01-31T11:47:55;13.13;;;7.80;;
51384;SDS011;37478;55.682;37.462;2023-01-31T11:52:52;11.38;;;6.95;;
51384;SDS011;37478;55.682;37.462;2023-01-31T11:55:17;14.60;;;8.05;;
51384;SDS011;37478;55.682;37.462;2023-01-31T11:57:43;15.55;;;7.82;;
51384;SDS011;37478;55.682;37.462;2023-01-31T12:00:22;12.63;;;7.38;;
51384;SDS011;37478;55.682;37.462;2023-01-31T12:03:07;12.32;;;7.20;;
51384;SDS011;37478;55.682;37.462;2023-01-31T12:05:38;14.73;;;7.70;;
51384;SDS011;37478;55.682;37.462;2023-01-31T12:08:05;12.57;;;7.28;;
51384;SDS011;37478;55.682;37.462;2023-01-31T12:10:31;14.63;;;7.53;;
51384;SDS011;37478;55.682;37.462;2023-01-31T12:12:57;13.45;;;7.05;;
51384;SDS011;37478;55.682;37.462;2023-01-31T12:15:23;15.90;;;7.78;;
51384;SDS011;37478;55.682;37.462;2023-01-31T12:17:49;13.35;;;6.60;;
51384;SDS011;37478;55.682;37.462;2023-01-31T12:25:20;15.18;;;7.97;;
51384;SDS011;37478;55.682;37.462;2023-01-31T12:33:17;11.70;;;6.80;;
51384;SDS011;37478;55.682;37.462;2023-01-31T12:41:31;16.70;;;7.93;;
51384;SDS011;37478;55.682;37.462;2023-01-31T12:49:23;13.25;;;6.95;;
51384;SDS011;37478;55.682;37.462;2023-01-31T13:02:23;16.73;;;7.60;;
51384;SDS011;37478;55.682;37.462;2023-01-31T13:05:15;14.07;;;8.05;;
51384;SDS011;37478;55.682;37.462;2023-01-31T13:07:44;14.30;;;7.28;;
51384;SDS011;37478;55.682;37.462;2023-01-31T13:12:56;16.30;;;8.65;;
51384;SDS011;37478;55.682;37.462;2023-01-31T13:15:27;19.70;;;9.57;;
51384;SDS011;37478;55.682;37.462;2023-01-31T13:17:56;16.02;;;7.88;;
51384;SDS011;37478;55.682;37.462;2023-01-31T13:20:34;16.33;;;8.93;;
51384;SDS011;37478;55.682;37.462;2023-01-31T13:23:02;12.05;;;6.85;;
51384;SDS011;37478;55.682;37.462;2023-01-31T13:25:38;16.95;;;8.88;;
51384;SDS011;37478;55.682;37.462;2023-01-31T13:30:37;15.38;;;7.60;;
51384;SDS011;37478;55.682;37.462;2023-01-31T13:35:47;13.00;;;7.93;;
51384;SDS011;37478;55.682;37.462;2023-01-31T13:38:16;16.48;;;7.90;;
51384;SDS011;37478;55.682;37.462;2023-01-31T13:40:51;22.88;;;8.32;;
51384;SDS011;37478;55.682;37.462;2023-01-31T13:43:18;16.92;;;7.32;;
51384;SDS011;37478;55.682;37.462;2023-01-31T13:45:49;17.52;;;9.02;;
51384;SDS011;37478;55.682;37.462;2023-01-31T13:50:52;15.90;;;8.00;;
51384;SDS011;37478;55.682;37.462;2023-01-31T13:53:22;16.58;;;8.40;;
51384;SDS011;37478;55.682;37.462;2023-01-31T13:55:50;19.17;;;10.15;;
51384;SDS011;37478;55.682;37.462;2023-01-31T13:58:23;14.55;;;7.85;;
51384;SDS011;37478;55.682;37.462;2023-01-31T14:10:23;14.60;;;7.35;;
51384;SDS011;37478;55.682;37.462;2023-01-31T14:14:45;19.42;;;7.88;;
51384;SDS011;37478;55.682;37.462;2023-01-31T14:17:23;21.23;;;8.32;;
51384;SDS011;37478;55.682;37.462;2023-01-31T14:22:27;15.05;;;7.07;;
51384;SDS011;37478;55.682;37.462;2023-01-31T14:27:32;14.48;;;6.68;;
51384;SDS011;37478;55.682;37.462;2023-01-31T14:34:57;14.93;;;6.78;;
51384;SDS011;37478;55.682;37.462;2023-01-31T14:42:33;16.80;;;8.02;;
51384;SDS011;37478;55.682;37.462;2023-01-31T14:53:17;13.55;;;7.72;;
51384;SDS011;37478;55.682;37.462;2023-01-31T14:58:10;11.45;;;6.80;;
51384;SDS011;37478;55.682;37.462;2023-01-31T15:00:37;16.80;;;8.07;;
51384;SDS011;37478;55.682;37.462;2023-01-31T15:03:15;17.77;;;8.52;;
51384;SDS011;37478;55.682;37.462;2023-01-31T15:05:43;15.55;;;8.00;;
51384;SDS011;37478;55.682;37.462;2023-01-31T15:16:32;15.30;;;8.43;;
51384;SDS011;37478;55.682;37.462;2023-01-31T15:19:15;19.15;;;8.07;;
51384;SDS011;37478;55.682;37.462;2023-01-31T15:21:50;16.95;;;8.43;;
51384;SDS011;37478;55.682;37.462;2023-01-31T15:24:18;19.10;;;8.63;;
51384;SDS011;37478;55.682;37.462;2023-01-31T15:26:44;18.35;;;8.85;;
51384;SDS011;37478;55.682;37.462;2023-01-31T15:29:12;20.83;;;10.07;;
51384;SDS011;37478;55.682;37.462;2023-01-31T15:31:41;16.85;;;8.68;;
51384;SDS011;37478;55.682;37.462;2023-01-31T15:34:22;16.70;;;7.95;;
51384;SDS011;37478;55.682;37.462;2023-01-31T15:37:06;18.10;;;9.98;;
51384;SDS011;37478;55.682;37.462;2023-01-31T15:39:39;21.00;;;9.13;;
51384;SDS011;37478;55.682;37.462;2023-01-31T15:42:19;15.35;;;8.50;;
51384;SDS011;37478;55.682;37.462;2023-01-31T15:44:44;16.90;;;9.15;;
51384;SDS011;37478;55.682;37.462;2023-01-31T15:47:18;21.95;;;10.05;;
51384;SDS011;37478;55.682;37.462;2023-01-31T15:49:43;18.92;;;9.00;;
51384;SDS011;37478;55.682;37.462;2023-01-31T15:54:50;20.23;;;8.15;;
51384;SDS011;37478;55.682;37.462;2023-01-31T15:57:16;16.02;;;8.30;;
51384;SDS011;37478;55.682;37.462;2023-01-31T15:59:42;18.55;;;10.07;;
51384;SDS011;37478;55.682;37.462;2023-01-31T16:02:10;22.48;;;10.25;;
51384;SDS011;37478;55.682;37.462;2023-01-31T16:04:40;16.67;;;8.85;;
51384;SDS011;37478;55.682;37.462;2023-01-31T16:07:13;15.52;;;8.30;;
51384;SDS011;37478;55.682;37.462;2023-01-31T16:09:38;24.20;;;9.00;;
51384;SDS011;37478;55.682;37.462;2023-01-31T16:12:05;20.88;;;9.13;;
51384;SDS011;37478;55.682;37.462;2023-01-31T16:14:30;16.88;;;9.05;;
51384;SDS011;37478;55.682;37.462;2023-01-31T16:16:56;16.85;;;8.73;;
51384;SDS011;37478;55.682;37.462;2023-01-31T16:19:26;19.42;;;8.40;;
51384;SDS011;37478;55.682;37.462;2023-01-31T16:21:52;20.73;;;9.23;;
51384;SDS011;37478;55.682;37.462;2023-01-31T16:24:19;16.92;;;9.48;;
51384;SDS011;37478;55.682;37.462;2023-01-31T16:29:13;19.83;;;8.40;;
51384;SDS011;37478;55.682;37.462;2023-01-31T16:31:47;20.40;;;9.52;;
51384;SDS011;37478;55.682;37.462;2023-01-31T16:34:20;24.20;;;9.25;;
51384;SDS011;37478;55.682;37.462;2023-01-31T16:39:58;20.58;;;9.75;;
51384;SDS011;37478;55.682;37.462;2023-01-31T16:42:22;24.15;;;10.02;;
51384;SDS011;37478;55.682;37.462;2023-01-31T16:52:43;19.25;;;8.38;;
51384;SDS011;37478;55.682;37.462;2023-01-31T16:55:13;16.60;;;9.55;;
51384;SDS011;37478;55.682;37.462;2023-01-31T16:57:39;19.10;;;8.55;;
51384;SDS011;37478;55.682;37.462;2023-01-31T17:00:46;18.08;;;9.23;;
51384;SDS011;37478;55.682;37.462;2023-01-31T17:02:53;16.67;;;9.30;;
51384;SDS011;37478;55.682;37.462;2023-01-31T17:05:21;24.02;;;9.88;;
51384;SDS011;37478;55.682;37.462;2023-01-31T17:07:46;23.48;;;9.98;;
51384;SDS011;37478;55.682;37.462;2023-01-31T17:12:43;22.60;;;10.70;;
51384;SDS011;37478;55.682;37.462;2023-01-31T17:15:12;20.52;;;10.00;;